createdAt,value
2022-10-13T00:01:06.919Z,9.53
2022-10-13T00:03:33.951Z,9.47
2022-10-13T00:06:00.923Z,9.39
2022-10-13T00:08:27.977Z,9.35
2022-10-13T00:10:54.911Z,9.30
2022-10-13T00:13:21.807Z,9.32
2022-10-13T00:15:49.248Z,9.26
2022-10-13T00:18:16.838Z,9.35
2022-10-13T00:20:47.382Z,9.36
2022-10-13T00:23:15.559Z,9.27
2022-10-13T00:25:48.035Z,9.38
2022-10-13T00:28:19.892Z,9.41
2022-10-13T00:30:47.661Z,9.38
2022-10-13T00:33:15.068Z,9.35
2022-10-13T00:35:49.261Z,9.22
2022-10-13T00:38:19.732Z,9.21
2022-10-13T00:40:55.720Z,9.32
2022-10-13T00:43:48.427Z,9.11
2022-10-13T00:46:16.631Z,9.06
2022-10-13T00:48:44.530Z,9.07
2022-10-13T00:51:15.242Z,9.10
2022-10-13T00:53:45.034Z,9.02
2022-10-13T00:56:13.290Z,8.97
2022-10-13T00:58:41.405Z,8.87
2022-10-13T01:01:08.719Z,8.73
2022-10-13T01:03:36.256Z,8.64
2022-10-13T01:06:05.773Z,8.50
2022-10-13T01:08:33.387Z,8.37
2022-10-13T01:11:22.834Z,8.38
2022-10-13T01:14:22.958Z,8.49
2022-10-13T01:17:20.563Z,8.51
2022-10-13T01:20:22.377Z,8.53
2022-10-13T01:23:21.193Z,8.39
2022-10-13T01:26:41.231Z,8.48
2022-10-13T01:29:41.341Z,8.51
2022-10-13T01:32:23.078Z,8.38
2022-10-13T01:35:07.749Z,8.32
2022-10-13T01:38:07.984Z,8.27
2022-10-13T01:40:51.617Z,8.39
2022-10-13T01:43:45.778Z,8.35
2022-10-13T01:46:23.590Z,8.28
2022-10-13T01:48:55.376Z,8.29
2022-10-13T01:51:25.443Z,8.13
2022-10-13T01:53:52.437Z,8.04
2022-10-13T01:56:19.553Z,8.05
2022-10-13T01:58:49.872Z,8.01
2022-10-13T02:01:28.284Z,8.13
2022-10-13T02:04:42.250Z,7.91
2022-10-13T02:07:27.947Z,7.87
2022-10-13T02:10:28.641Z,7.89
2022-10-13T02:13:05.110Z,7.99
2022-10-13T02:15:47.801Z,7.88
2022-10-13T02:18:21.483Z,7.96
2022-10-13T02:20:49.220Z,7.99
2022-10-13T02:23:18.419Z,7.97
2022-10-13T02:25:47.096Z,7.95
2022-10-13T02:28:15.350Z,8.02
2022-10-13T02:30:43.797Z,8.06
2022-10-13T02:33:12.349Z,8.09
2022-10-13T02:35:39.566Z,8.09
2022-10-13T02:38:06.649Z,8.14
2022-10-13T02:40:33.770Z,8.06
2022-10-13T02:43:00.922Z,8.00
2022-10-13T02:45:28.215Z,7.87
2022-10-13T02:47:57.902Z,7.98
2022-10-13T02:50:24.861Z,7.80
2022-10-13T02:52:52.014Z,7.79
2022-10-13T02:55:19.061Z,7.74
2022-10-13T02:57:46.329Z,7.87
2022-10-13T03:00:14.660Z,7.75
2022-10-13T03:02:42.220Z,7.79
2022-10-13T03:05:09.926Z,7.71
2022-10-13T03:07:37.288Z,7.83
2022-10-13T03:10:05.199Z,7.70
2022-10-13T03:12:32.200Z,7.62
2022-10-13T03:14:59.159Z,7.75
2022-10-13T03:17:26.208Z,7.65
2022-10-13T03:19:53.165Z,7.63
2022-10-13T03:22:20.385Z,7.71
2022-10-13T03:24:47.557Z,7.73
2022-10-13T03:27:14.548Z,7.70
2022-10-13T03:29:42.148Z,7.78
2022-10-13T03:32:09.688Z,7.81
2022-10-13T03:34:36.603Z,7.71
2022-10-13T03:37:03.951Z,7.60
2022-10-13T03:39:30.869Z,7.47
2022-10-13T03:41:57.873Z,7.55
2022-10-13T03:44:24.893Z,7.83
2022-10-13T03:46:51.811Z,7.78
2022-10-13T03:49:19.013Z,7.61
2022-10-13T03:51:46.377Z,7.54
2022-10-13T03:54:14.086Z,7.62
2022-10-13T03:56:42.387Z,7.46
2022-10-13T03:59:13.147Z,7.41
2022-10-13T04:01:40.149Z,7.45
2022-10-13T04:04:09.188Z,7.52
2022-10-13T04:06:36.163Z,7.59
2022-10-13T04:09:03.931Z,7.35
2022-10-13T04:11:31.038Z,7.40
2022-10-13T04:13:58.803Z,7.34
2022-10-13T04:16:29.574Z,7.29
2022-10-13T04:19:03.270Z,7.28
2022-10-13T04:21:33.467Z,7.31
2022-10-13T04:24:01.490Z,7.60
2022-10-13T04:26:32.723Z,7.29
2022-10-13T04:29:02.255Z,7.15
2022-10-13T04:31:30.506Z,7.30
2022-10-13T04:33:58.569Z,7.16
2022-10-13T04:36:26.556Z,7.17
2022-10-13T04:38:54.672Z,6.99
2022-10-13T04:41:22.266Z,7.12
2022-10-13T04:43:51.191Z,7.09
2022-10-13T04:46:23.683Z,7.16
2022-10-13T04:48:50.823Z,7.21
2022-10-13T04:51:24.327Z,7.17
2022-10-13T04:53:59.149Z,7.15
2022-10-13T04:56:27.060Z,7.33
2022-10-13T04:58:54.281Z,7.21
2022-10-13T05:01:26.647Z,7.22
2022-10-13T05:03:56.402Z,7.46
2022-10-13T05:06:31.856Z,7.25
2022-10-13T05:08:58.982Z,7.27
2022-10-13T05:11:27.488Z,7.42
2022-10-13T05:13:55.300Z,8.04
2022-10-13T05:16:23.232Z,8.23
2022-10-13T05:18:53.049Z,8.66
2022-10-13T05:21:23.707Z,8.89
2022-10-13T05:23:55.667Z,9.62
2022-10-13T05:26:28.988Z,10.08
2022-10-13T05:29:00.703Z,9.76
2022-10-13T05:31:30.864Z,9.59
2022-10-13T05:33:58.104Z,9.38
2022-10-13T05:36:34.646Z,8.90
2022-10-13T05:39:06.033Z,8.96
2022-10-13T05:41:33.261Z,8.80
2022-10-13T05:44:07.854Z,8.81
2022-10-13T05:46:35.055Z,8.92
2022-10-13T05:49:02.789Z,9.07
2022-10-13T05:51:40.787Z,8.93
2022-10-13T05:54:12.841Z,8.93
2022-10-13T05:56:46.310Z,8.93
2022-10-13T05:59:17.472Z,9.14
2022-10-13T06:01:45.083Z,9.23
2022-10-13T06:04:21.937Z,9.30
2022-10-13T06:06:49.651Z,9.18
2022-10-13T06:09:17.315Z,9.45
2022-10-13T06:11:44.261Z,9.50
2022-10-13T06:14:11.183Z,9.40
2022-10-13T06:16:38.168Z,9.59
2022-10-13T06:19:06.121Z,9.82
2022-10-13T06:21:35.700Z,9.81
2022-10-13T06:24:03.119Z,9.74
2022-10-13T06:26:30.144Z,9.80
2022-10-13T06:28:59.547Z,9.89
2022-10-13T06:31:27.112Z,9.93
2022-10-13T06:33:54.257Z,10.47
2022-10-13T06:36:21.556Z,12.31
2022-10-13T06:38:48.479Z,14.50
2022-10-13T06:41:15.411Z,15.74
2022-10-13T06:43:42.555Z,16.73
2022-10-13T06:46:11.215Z,16.82
2022-10-13T06:48:38.869Z,18.13
2022-10-13T06:51:11.800Z,19.15
2022-10-13T06:53:38.816Z,19.43
2022-10-13T06:56:07.696Z,20.30
2022-10-13T06:58:36.454Z,20.98
2022-10-13T07:01:04.208Z,21.50
2022-10-13T07:03:31.312Z,22.09
2022-10-13T07:06:06.355Z,22.41
2022-10-13T07:08:35.022Z,22.83
2022-10-13T07:11:15.273Z,22.71
2022-10-13T07:13:46.254Z,23.42
2022-10-13T07:16:14.826Z,23.37
2022-10-13T07:18:41.871Z,24.32
2022-10-13T07:21:09.538Z,24.33
2022-10-13T07:23:36.474Z,23.80
2022-10-13T07:26:09.375Z,24.23
2022-10-13T07:28:36.452Z,23.52
2022-10-13T07:31:13.779Z,23.55
2022-10-13T07:33:42.673Z,22.73
2022-10-13T07:36:10.862Z,22.72
2022-10-13T07:38:38.041Z,21.62
2022-10-13T07:41:07.821Z,21.30
2022-10-13T07:43:35.367Z,21.22
2022-10-13T07:46:05.177Z,21.59
2022-10-13T07:48:33.315Z,22.26
2022-10-13T07:51:06.011Z,22.39
2022-10-13T07:53:35.311Z,22.33
2022-10-13T07:56:04.392Z,22.86
2022-10-13T07:58:31.502Z,22.39
2022-10-13T08:01:03.397Z,22.42
2022-10-13T08:03:31.478Z,22.24
2022-10-13T08:06:04.182Z,21.77
2022-10-13T08:08:31.858Z,22.59
2022-10-13T08:11:04.777Z,22.99
2022-10-13T08:13:31.790Z,23.25
2022-10-13T08:16:02.167Z,23.43
2022-10-13T08:18:30.265Z,23.88
2022-10-13T08:23:50.640Z,22.82
2022-10-13T08:26:24.763Z,23.22
2022-10-13T08:31:39.909Z,22.38
2022-10-13T08:34:07.609Z,22.02
2022-10-13T08:36:34.631Z,22.12
2022-10-13T08:39:01.703Z,22.00
2022-10-13T08:41:46.454Z,22.36
2022-10-13T08:47:43.324Z,22.81
2022-10-13T08:50:25.442Z,23.59
2022-10-13T08:52:59.948Z,23.49
2022-10-13T08:55:43.823Z,23.62
2022-10-13T08:58:37.050Z,23.78
2022-10-13T09:01:15.325Z,23.50
2022-10-13T09:04:31.914Z,23.83
2022-10-13T09:07:28.397Z,22.86
2022-10-13T09:09:55.695Z,21.18
2022-10-13T09:12:25.133Z,22.15
2022-10-13T09:17:35.629Z,22.28
2022-10-13T09:20:07.972Z,23.05
2022-10-13T09:22:38.930Z,22.63
2022-10-13T09:25:11.266Z,22.72
2022-10-13T09:28:01.370Z,22.81
2022-10-13T09:30:35.687Z,22.24
2022-10-13T09:33:08.974Z,22.45
2022-10-13T09:35:47.682Z,23.40
2022-10-13T09:38:22.439Z,21.35
2022-10-13T09:41:04.762Z,22.38
2022-10-13T09:43:34.753Z,22.83
2022-10-13T09:46:24.291Z,23.24
2022-10-13T09:48:55.416Z,22.88
2022-10-13T09:51:42.846Z,23.14
2022-10-13T09:54:49.007Z,23.16
2022-10-13T09:57:39.972Z,23.37
2022-10-13T10:00:24.532Z,23.09
2022-10-13T10:03:19.555Z,22.72
2022-10-13T10:06:00.816Z,22.86
2022-10-13T10:09:02.845Z,21.72
2022-10-13T10:11:43.937Z,22.05
2022-10-13T10:14:26.773Z,21.29
2022-10-13T10:16:59.682Z,21.30
2022-10-13T10:20:14.113Z,21.18
2022-10-13T10:22:58.239Z,21.29
2022-10-13T10:25:46.055Z,21.01
2022-10-13T10:28:32.973Z,21.41
2022-10-13T10:31:44.329Z,20.93
2022-10-13T10:34:30.892Z,20.74
2022-10-13T10:37:35.256Z,21.18
2022-10-13T10:40:22.035Z,21.04
2022-10-13T10:42:57.296Z,20.78
2022-10-13T10:45:34.410Z,20.94
2022-10-13T10:48:12.454Z,21.32
2022-10-13T10:50:39.987Z,21.07
2022-10-13T10:53:20.025Z,21.09
2022-10-13T10:56:30.351Z,20.25
2022-10-13T10:59:21.957Z,20.92
2022-10-13T11:01:51.815Z,21.19
2022-10-13T11:04:40.435Z,20.43
2022-10-13T11:07:23.477Z,20.15
2022-10-13T11:09:53.041Z,19.86
2022-10-13T11:12:20.146Z,19.48
2022-10-13T11:14:57.796Z,20.04
2022-10-13T11:17:32.618Z,19.18
2022-10-13T11:20:00.752Z,18.67
2022-10-13T11:22:30.023Z,19.06
2022-10-13T11:25:04.082Z,19.18
2022-10-13T11:27:36.658Z,19.22
2022-10-13T11:30:05.000Z,19.28
2022-10-13T11:32:34.404Z,19.08
2022-10-13T11:35:07.926Z,19.66
2022-10-13T11:38:07.638Z,19.47
2022-10-13T11:40:44.140Z,19.37
2022-10-13T11:43:41.937Z,19.45
2022-10-13T11:46:14.723Z,18.98
2022-10-13T11:48:53.254Z,19.05
2022-10-13T11:52:03.243Z,19.15
2022-10-13T11:54:35.624Z,18.91
2022-10-13T11:57:04.639Z,18.91
2022-10-13T11:59:39.791Z,18.48
2022-10-13T12:02:06.598Z,18.54
2022-10-13T12:04:33.574Z,18.46
2022-10-13T12:07:10.740Z,18.56
2022-10-13T12:09:57.182Z,18.23
2022-10-13T12:12:24.924Z,17.89
2022-10-13T12:14:59.773Z,17.53
2022-10-13T12:17:35.976Z,17.68
2022-10-13T12:20:24.181Z,17.57
2022-10-13T12:22:52.958Z,17.10
2022-10-13T12:25:23.598Z,17.47
2022-10-13T12:27:57.841Z,17.46
2022-10-13T12:30:37.736Z,17.47
2022-10-13T12:33:35.445Z,17.53
2022-10-13T12:36:21.048Z,17.71
2022-10-13T12:38:53.182Z,17.23
2022-10-13T12:41:28.723Z,16.65
2022-10-13T12:43:56.212Z,16.94
2022-10-13T12:46:40.842Z,17.05
2022-10-13T12:49:21.797Z,17.09
2022-10-13T12:51:52.620Z,17.43
2022-10-13T12:54:28.732Z,17.14
2022-10-13T12:57:00.491Z,16.87
2022-10-13T12:59:30.744Z,16.74
2022-10-13T13:02:04.312Z,16.47
2022-10-13T13:04:43.157Z,16.20
2022-10-13T13:07:30.672Z,16.13
2022-10-13T13:10:17.068Z,16.35
2022-10-13T13:12:45.844Z,16.48
2022-10-13T13:15:34.272Z,16.40
2022-10-13T13:18:27.158Z,16.28
2022-10-13T13:20:54.853Z,16.22
2022-10-13T13:23:23.377Z,16.28
2022-10-13T13:26:11.066Z,16.10
2022-10-13T13:28:56.015Z,15.96
2022-10-13T13:31:25.847Z,16.16
2022-10-13T13:33:53.063Z,16.13
2022-10-13T13:36:23.080Z,16.31
2022-10-13T13:38:50.618Z,15.92
2022-10-13T13:41:17.741Z,16.07
2022-10-13T13:43:44.768Z,16.04
2022-10-13T13:46:23.392Z,16.00
2022-10-13T13:48:50.584Z,16.22
2022-10-13T13:51:17.834Z,16.02
2022-10-13T13:53:45.495Z,15.86
2022-10-13T13:56:15.151Z,16.08
2022-10-13T13:58:43.124Z,15.96
2022-10-13T14:01:11.648Z,15.86
2022-10-13T14:03:39.075Z,16.02
2022-10-13T14:06:06.654Z,15.83
2022-10-13T14:08:42.090Z,15.87
2022-10-13T14:11:10.059Z,15.94
2022-10-13T14:13:37.002Z,15.83
2022-10-13T14:16:04.708Z,15.76
2022-10-13T14:18:32.256Z,15.76
2022-10-13T14:20:59.200Z,15.67
2022-10-13T14:23:26.214Z,15.79
2022-10-13T14:25:53.125Z,15.68
2022-10-13T14:28:20.086Z,15.60
2022-10-13T14:30:47.043Z,15.46
2022-10-13T14:33:19.181Z,15.81
2022-10-13T14:35:47.006Z,15.77
2022-10-13T14:38:14.686Z,15.55
2022-10-13T14:40:42.371Z,15.54
2022-10-13T14:43:09.327Z,15.47
2022-10-13T14:45:36.281Z,15.44
2022-10-13T14:48:03.621Z,15.25
2022-10-13T14:50:30.579Z,15.52
2022-10-13T14:52:57.528Z,15.53
2022-10-13T14:55:24.616Z,15.34
2022-10-13T14:57:51.569Z,15.17
2022-10-13T15:00:18.605Z,15.32
2022-10-13T15:02:45.631Z,15.39
2022-10-13T15:05:12.622Z,15.44
2022-10-13T15:07:41.345Z,15.49
2022-10-13T15:10:08.868Z,15.37
2022-10-13T15:12:35.859Z,15.07
2022-10-13T15:15:03.639Z,15.04
2022-10-13T15:17:33.301Z,14.88
2022-10-13T15:20:00.520Z,14.95
2022-10-13T15:22:27.506Z,14.75
2022-10-13T15:24:54.490Z,14.77
2022-10-13T15:27:21.442Z,14.77
2022-10-13T15:29:48.503Z,14.57
2022-10-13T15:32:18.624Z,14.54
2022-10-13T15:34:46.281Z,14.57
2022-10-13T15:37:13.228Z,14.76
2022-10-13T15:39:40.205Z,14.57
2022-10-13T15:42:07.169Z,14.52
2022-10-13T15:44:57.264Z,14.43
2022-10-13T15:47:21.057Z,14.37
2022-10-13T15:49:47.967Z,14.29
2022-10-13T15:52:15.762Z,14.27
2022-10-13T15:54:42.740Z,14.32
2022-10-13T15:57:09.675Z,14.17
2022-10-13T15:59:36.638Z,14.22
2022-10-13T16:02:03.609Z,14.10
2022-10-13T16:04:34.825Z,14.13
2022-10-13T16:07:04.172Z,14.09
2022-10-13T16:09:31.428Z,13.98
2022-10-13T16:11:58.322Z,14.06
2022-10-13T16:14:25.330Z,13.93
2022-10-13T16:16:52.349Z,13.97
2022-10-13T16:19:19.263Z,13.88
2022-10-13T16:21:46.994Z,13.84
2022-10-13T16:24:13.975Z,13.82
2022-10-13T16:26:40.906Z,13.74
2022-10-13T16:29:07.834Z,13.77
2022-10-13T16:31:34.877Z,13.70
2022-10-13T16:34:01.894Z,13.64
2022-10-13T16:36:28.902Z,13.70
2022-10-13T16:38:55.975Z,13.50
2022-10-13T16:41:23.965Z,13.61
2022-10-13T16:43:51.500Z,13.64
2022-10-13T16:46:20.857Z,13.51
2022-10-13T16:48:48.366Z,13.48
2022-10-13T16:51:24.024Z,13.54
2022-10-13T16:53:54.048Z,13.35
2022-10-13T16:56:22.754Z,13.29
2022-10-13T16:58:57.526Z,13.23
2022-10-13T17:01:25.891Z,13.18
2022-10-13T17:03:53.281Z,13.19
2022-10-13T17:06:24.968Z,13.14
2022-10-13T17:08:51.888Z,13.34
2022-10-13T17:11:22.556Z,13.24
2022-10-13T17:13:50.092Z,13.33
2022-10-13T17:16:18.302Z,13.33
2022-10-13T17:18:46.519Z,13.15
2022-10-13T17:21:17.010Z,13.15
2022-10-13T17:23:48.359Z,13.08
2022-10-13T17:26:17.984Z,12.94
2022-10-13T17:28:45.683Z,13.18
2022-10-13T17:31:17.804Z,13.13
2022-10-13T17:33:45.768Z,13.05
2022-10-13T17:36:19.899Z,12.90
2022-10-13T17:38:48.732Z,12.96
2022-10-13T17:41:16.427Z,12.92
2022-10-13T17:43:44.357Z,12.92
2022-10-13T17:49:03.336Z,12.86
2022-10-13T17:51:30.298Z,12.74
2022-10-13T17:54:00.812Z,12.74
2022-10-13T17:56:28.141Z,12.66
2022-10-13T17:58:56.072Z,12.49
2022-10-13T18:01:32.842Z,12.50
2022-10-13T18:04:16.499Z,12.35
2022-10-13T18:06:44.836Z,12.38
2022-10-13T18:09:15.526Z,12.41
2022-10-13T18:11:49.766Z,12.32
2022-10-13T18:14:19.803Z,12.23
2022-10-13T18:16:46.890Z,12.27
2022-10-13T18:19:14.499Z,12.31
2022-10-13T18:21:41.858Z,12.33
2022-10-13T18:24:10.600Z,12.37
2022-10-13T18:26:37.736Z,12.24
2022-10-13T18:29:08.036Z,12.27
2022-10-13T18:31:38.539Z,12.23
2022-10-13T18:34:15.196Z,12.13
2022-10-13T18:36:48.933Z,12.14
2022-10-13T18:39:29.187Z,12.16
2022-10-13T18:41:57.335Z,12.19
2022-10-13T18:44:25.162Z,12.11
2022-10-13T18:46:54.922Z,12.14
2022-10-13T18:49:30.651Z,12.16
2022-10-13T18:51:59.484Z,12.02
2022-10-13T18:54:28.444Z,12.03
2022-10-13T18:56:55.476Z,12.00
2022-10-13T18:59:22.844Z,12.00
2022-10-13T19:01:50.139Z,11.92
2022-10-13T19:04:17.117Z,11.84
2022-10-13T19:06:44.831Z,12.02
2022-10-13T19:09:15.885Z,11.84
2022-10-13T19:11:43.104Z,11.83
2022-10-13T19:14:13.232Z,11.87
2022-10-13T19:16:43.674Z,11.75
2022-10-13T19:19:10.931Z,11.90
2022-10-13T19:21:39.311Z,11.80
2022-10-13T19:24:07.905Z,11.78
2022-10-13T19:26:37.021Z,11.93
2022-10-13T19:29:13.356Z,11.92
2022-10-13T19:31:42.631Z,11.75
2022-10-13T19:34:11.851Z,11.75
2022-10-13T19:36:43.525Z,11.94
2022-10-13T19:39:24.317Z,11.72
2022-10-13T19:41:54.780Z,11.82
2022-10-13T19:44:24.206Z,11.68
2022-10-13T19:46:53.169Z,11.54
2022-10-13T19:49:25.999Z,11.62
2022-10-13T19:51:54.067Z,11.56
2022-10-13T19:54:21.334Z,11.41
2022-10-13T19:56:50.321Z,11.35
2022-10-13T19:59:18.653Z,11.32
2022-10-13T20:01:45.726Z,11.25
2022-10-13T20:04:14.237Z,11.36
2022-10-13T20:06:41.368Z,11.26
2022-10-13T20:09:08.607Z,11.24
2022-10-13T20:11:35.583Z,11.19
2022-10-13T20:14:02.545Z,11.15
2022-10-13T20:16:29.559Z,11.11
2022-10-13T20:18:59.757Z,11.03
2022-10-13T20:21:27.829Z,11.03
2022-10-13T20:23:54.970Z,11.09
2022-10-13T20:26:23.037Z,11.12
2022-10-13T20:28:51.574Z,11.15
2022-10-13T20:31:21.396Z,11.08
2022-10-13T20:33:52.453Z,11.09
2022-10-13T20:36:19.765Z,11.02
2022-10-13T20:38:48.772Z,10.92
2022-10-13T20:41:31.141Z,11.00
2022-10-13T20:44:02.054Z,10.91
2022-10-13T20:46:29.174Z,10.92
2022-10-13T20:49:13.123Z,10.90
2022-10-13T20:51:42.800Z,10.84
2022-10-13T20:54:15.129Z,10.82
2022-10-13T20:56:42.624Z,10.83
2022-10-13T20:59:12.874Z,10.83
2022-10-13T21:01:40.728Z,10.90
2022-10-13T21:04:07.832Z,10.78
2022-10-13T21:06:35.836Z,10.87
2022-10-13T21:09:05.050Z,10.93
2022-10-13T21:11:32.534Z,10.79
2022-10-13T21:13:59.813Z,10.76
2022-10-13T21:16:28.466Z,10.69
2022-10-13T21:18:57.381Z,10.74
2022-10-13T21:21:28.779Z,10.88
2022-10-13T21:24:01.477Z,10.82
2022-10-13T21:26:32.385Z,10.73
2022-10-13T21:29:00.303Z,10.66
2022-10-13T21:31:28.598Z,10.78
2022-10-13T21:33:56.854Z,10.63
2022-10-13T21:36:27.486Z,10.55
2022-10-13T21:38:58.709Z,10.63
2022-10-13T21:41:26.510Z,10.50
2022-10-13T21:43:53.795Z,10.51
2022-10-13T21:46:27.488Z,10.43
2022-10-13T21:49:00.921Z,10.42
2022-10-13T21:51:34.603Z,10.34
2022-10-13T21:54:06.233Z,10.38
2022-10-13T21:56:34.142Z,10.38
2022-10-13T21:59:01.616Z,10.39
2022-10-13T22:01:29.138Z,10.47
2022-10-13T22:03:59.440Z,10.24
2022-10-13T22:06:27.931Z,10.29
2022-10-13T22:08:57.296Z,10.30
2022-10-13T22:11:28.114Z,10.44
2022-10-13T22:13:57.650Z,10.38
2022-10-13T22:16:38.704Z,10.32
2022-10-13T22:19:06.833Z,10.24
2022-10-13T22:21:46.108Z,10.18
2022-10-13T22:24:17.122Z,10.09
2022-10-13T22:26:45.483Z,10.18
2022-10-13T22:29:16.592Z,10.14
2022-10-13T22:31:44.102Z,10.12
2022-10-13T22:34:13.039Z,10.10
2022-10-13T22:36:44.480Z,10.06
2022-10-13T22:39:12.738Z,10.03
2022-10-13T22:41:39.668Z,9.90
2022-10-13T22:44:07.064Z,9.93
2022-10-13T22:46:37.281Z,9.92
2022-10-13T22:49:05.526Z,9.95
2022-10-13T22:51:35.099Z,9.80
2022-10-13T22:54:03.063Z,9.83
2022-10-13T22:56:32.873Z,9.91
2022-10-13T22:59:04.172Z,9.75
2022-10-13T23:01:31.493Z,9.85
2022-10-13T23:03:59.082Z,9.86
2022-10-13T23:06:30.081Z,9.95
2022-10-13T23:09:00.256Z,9.74
2022-10-13T23:11:27.749Z,9.67
2022-10-13T23:13:54.849Z,9.76
2022-10-13T23:16:25.524Z,9.64
2022-10-13T23:18:53.151Z,9.67
2022-10-13T23:21:22.459Z,9.52
2022-10-13T23:23:58.115Z,9.53
2022-10-13T23:26:25.548Z,9.60
2022-10-13T23:28:53.529Z,9.57
2022-10-13T23:31:20.516Z,9.54
2022-10-13T23:33:47.911Z,9.51
2022-10-13T23:36:20.013Z,9.47
2022-10-13T23:38:47.002Z,9.47
2022-10-13T23:41:17.625Z,9.44
2022-10-13T23:43:44.625Z,9.32
2022-10-13T23:46:11.907Z,9.44
2022-10-13T23:48:40.249Z,9.35
2022-10-13T23:51:18.832Z,9.37
2022-10-13T23:53:47.515Z,9.33
2022-10-13T23:56:14.458Z,9.18
2022-10-13T23:58:43.389Z,9.30
